createdAt,value
2022-12-17T00:02:47.724Z,13.70
2022-12-17T00:08:17.131Z,13.70
2022-12-17T00:13:41.222Z,13.70
2022-12-17T00:19:03.395Z,13.70
2022-12-17T00:24:45.553Z,13.70
2022-12-17T00:30:07.682Z,13.70
2022-12-17T00:35:29.750Z,13.60
2022-12-17T00:40:51.842Z,13.60
2022-12-17T00:46:14.732Z,13.50
2022-12-17T00:51:37.045Z,13.50
2022-12-17T00:56:59.226Z,13.50
2022-12-17T01:02:21.424Z,13.40
2022-12-17T01:07:43.609Z,13.40
2022-12-17T01:13:05.782Z,13.30
2022-12-17T01:18:27.890Z,13.40
2022-12-17T01:23:50.023Z,13.30
2022-12-17T01:29:12.115Z,13.30
2022-12-17T01:34:35.962Z,13.20
2022-12-17T01:39:58.769Z,13.20
2022-12-17T01:45:22.210Z,13.10
2022-12-17T01:50:47.248Z,13.10
2022-12-17T01:56:09.882Z,13.10
2022-12-17T02:01:33.093Z,13.10
2022-12-17T02:07:00.671Z,13.20
2022-12-17T02:12:33.264Z,13.20
2022-12-17T02:18:04.105Z,13.30
2022-12-17T02:28:38.451Z,13.40
2022-12-17T02:34:02.014Z,13.40
2022-12-17T02:39:27.692Z,13.30
2022-12-17T02:44:50.775Z,13.30
2022-12-17T02:50:13.579Z,13.30
2022-12-17T02:55:35.901Z,13.40
2022-12-17T03:00:58.299Z,13.60
2022-12-17T03:06:20.783Z,13.60
2022-12-17T03:11:42.949Z,13.60
2022-12-17T03:17:05.203Z,13.80
2022-12-17T03:22:27.310Z,13.80
2022-12-17T03:27:49.385Z,13.80
2022-12-17T03:33:11.462Z,13.90
2022-12-17T03:38:33.937Z,14.00
2022-12-17T03:43:56.149Z,14.00
2022-12-17T03:49:18.271Z,14.10
2022-12-17T03:54:40.446Z,14.10
2022-12-17T04:00:02.685Z,14.10
2022-12-17T04:05:43.120Z,14.10
2022-12-17T04:11:05.758Z,14.00
2022-12-17T04:16:28.574Z,13.80
2022-12-17T04:21:50.679Z,13.70
2022-12-17T04:27:12.741Z,13.60
2022-12-17T04:32:35.576Z,13.50
2022-12-17T04:37:57.860Z,13.40
2022-12-17T04:43:30.488Z,13.30
2022-12-17T04:48:52.579Z,13.20
2022-12-17T04:54:14.689Z,13.20
2022-12-17T04:59:36.785Z,13.20
2022-12-17T05:04:58.889Z,13.20
2022-12-17T05:10:21.037Z,13.20
2022-12-17T05:15:45.151Z,13.10
2022-12-17T05:21:09.336Z,13.10
2022-12-17T05:26:40.241Z,13.10
2022-12-17T05:32:02.429Z,13.10
2022-12-17T05:37:24.568Z,13.20
2022-12-17T05:42:46.633Z,13.30
2022-12-17T05:48:08.769Z,13.40
2022-12-17T05:53:30.927Z,13.40
2022-12-17T05:58:53.080Z,13.40
2022-12-17T06:04:15.229Z,13.50
2022-12-17T06:09:37.889Z,13.50
2022-12-17T06:15:00.104Z,13.50
2022-12-17T06:20:22.195Z,13.60
2022-12-17T06:25:44.298Z,13.60
2022-12-17T06:31:15.001Z,13.70
2022-12-17T06:36:37.131Z,13.80
2022-12-17T06:42:04.155Z,13.90
2022-12-17T06:47:26.970Z,14.00
2022-12-17T06:52:49.219Z,14.10
2022-12-17T06:58:20.573Z,14.30
2022-12-17T07:03:42.737Z,14.20
2022-12-17T07:09:05.240Z,14.40
2022-12-17T07:14:27.366Z,14.60
2022-12-17T07:19:49.564Z,14.60
2022-12-17T07:25:11.716Z,14.80
2022-12-17T07:30:33.831Z,14.90
2022-12-17T07:35:55.934Z,15.10
2022-12-17T07:41:19.482Z,15.30
2022-12-17T07:46:41.657Z,15.40
2022-12-17T07:52:03.833Z,15.40
2022-12-17T07:57:26.208Z,15.50
2022-12-17T08:02:48.405Z,15.50
2022-12-17T08:08:10.530Z,15.60
2022-12-17T08:13:32.735Z,15.70
2022-12-17T08:18:54.837Z,15.80
2022-12-17T08:24:16.961Z,15.90
2022-12-17T08:29:39.095Z,16.00
2022-12-17T08:35:01.235Z,16.10
2022-12-17T08:40:23.641Z,16.20
2022-12-17T08:45:45.811Z,16.30
2022-12-17T08:51:07.997Z,16.40
2022-12-17T08:56:30.153Z,16.40
2022-12-17T09:01:52.417Z,16.50
2022-12-17T09:07:14.659Z,16.60
2022-12-17T09:12:36.758Z,16.70
2022-12-17T09:17:58.901Z,16.70
2022-12-17T09:23:21.029Z,16.80
2022-12-17T09:28:43.147Z,16.90
2022-12-17T09:34:05.971Z,17.00
2022-12-17T09:39:28.130Z,17.10
2022-12-17T09:50:07.587Z,17.20
2022-12-17T09:55:39.667Z,17.20
2022-12-17T10:01:01.949Z,17.40
2022-12-17T10:16:57.984Z,17.60
2022-12-17T10:22:29.795Z,17.90
2022-12-17T10:27:51.894Z,18.00
2022-12-17T10:33:16.331Z,18.20
2022-12-17T10:38:50.318Z,18.30
2022-12-17T10:44:12.465Z,18.40
2022-12-17T10:49:38.689Z,18.50
2022-12-17T10:55:00.898Z,18.30
2022-12-17T11:00:23.549Z,18.30
2022-12-17T11:05:52.849Z,18.20
2022-12-17T11:11:22.976Z,18.30
2022-12-17T11:16:50.538Z,18.30
2022-12-17T11:22:17.195Z,18.30
2022-12-17T11:27:44.705Z,18.20
2022-12-17T11:33:21.597Z,18.10
2022-12-17T11:49:51.775Z,18.00
2022-12-17T11:55:36.964Z,18.00
2022-12-17T12:01:15.109Z,18.00
2022-12-17T12:06:49.856Z,18.10
2022-12-17T12:22:46.983Z,18.20
2022-12-17T12:28:38.329Z,18.30
2022-12-17T12:39:15.631Z,18.30
2022-12-17T12:55:14.835Z,18.40
2022-12-17T13:10:55.389Z,18.60
2022-12-17T13:16:04.042Z,18.50
2022-12-17T13:42:36.608Z,18.30
2022-12-17T13:47:38.847Z,18.10
2022-12-17T13:52:41.030Z,18.00
2022-12-17T13:57:46.679Z,17.80
2022-12-17T14:02:49.263Z,17.70
2022-12-17T14:07:52.393Z,17.60
2022-12-17T14:13:08.521Z,17.50
2022-12-17T14:18:16.058Z,17.40
2022-12-17T14:23:27.844Z,17.20
2022-12-17T14:33:41.769Z,17.10
2022-12-17T14:39:02.711Z,16.90
2022-12-17T14:44:05.987Z,16.70
2022-12-17T14:49:18.057Z,16.70
2022-12-17T14:54:29.936Z,16.60
2022-12-17T14:59:34.332Z,16.60
2022-12-17T15:04:38.596Z,16.50
2022-12-17T15:09:42.104Z,16.50
2022-12-17T15:14:44.317Z,16.40
2022-12-17T15:19:51.360Z,16.30
2022-12-17T15:24:57.894Z,16.20
2022-12-17T15:30:00.238Z,16.20
2022-12-17T15:35:02.579Z,16.20
2022-12-17T15:40:06.097Z,16.10
2022-12-17T15:45:09.186Z,16.10
2022-12-17T15:50:11.438Z,16.00
2022-12-17T15:55:14.664Z,15.90
2022-12-17T16:00:17.121Z,15.90
2022-12-17T16:05:22.109Z,15.80
2022-12-17T16:10:24.408Z,15.70
2022-12-17T16:15:26.830Z,15.70
2022-12-17T16:20:29.097Z,15.60
2022-12-17T16:25:31.416Z,15.60
2022-12-17T16:30:33.676Z,15.40
2022-12-17T16:35:36.131Z,15.40
2022-12-17T16:40:39.408Z,15.40
2022-12-17T16:45:48.973Z,15.40
2022-12-17T16:50:52.024Z,15.30
2022-12-17T16:55:54.271Z,15.30
2022-12-17T17:00:56.513Z,15.20
2022-12-17T17:06:03.794Z,15.10
2022-12-17T17:11:12.126Z,14.80
2022-12-17T17:16:14.810Z,14.90
2022-12-17T17:21:25.444Z,14.80
2022-12-17T17:26:30.569Z,14.90
2022-12-17T17:32:08.403Z,15.00
2022-12-17T17:36:59.324Z,15.10
2022-12-17T17:42:02.138Z,15.10
2022-12-17T17:47:04.728Z,15.10
2022-12-17T17:52:10.350Z,15.20
2022-12-17T17:57:13.328Z,15.10
2022-12-17T18:02:15.770Z,15.10
2022-12-17T18:07:26.903Z,15.00
2022-12-17T18:12:49.937Z,15.00
2022-12-17T18:17:52.558Z,14.80
2022-12-17T18:22:54.908Z,14.90
2022-12-17T18:27:57.321Z,15.00
2022-12-17T18:32:59.705Z,15.00
2022-12-17T18:38:02.074Z,14.90
2022-12-17T18:43:24.600Z,14.90
2022-12-17T18:48:27.004Z,14.60
2022-12-17T18:53:29.388Z,14.60
2022-12-17T18:58:31.745Z,14.60
2022-12-17T19:03:34.421Z,14.60
2022-12-17T19:08:37.264Z,14.60
2022-12-17T19:13:39.935Z,14.60
2022-12-17T19:18:42.871Z,14.60
2022-12-17T19:23:45.264Z,14.70
2022-12-17T19:28:50.542Z,14.80
2022-12-17T19:33:56.039Z,14.90
2022-12-17T19:39:01.066Z,14.90
2022-12-17T19:44:06.359Z,14.90
2022-12-17T19:49:11.256Z,14.80
2022-12-17T19:54:15.654Z,14.70
2022-12-17T19:59:18.069Z,14.50
2022-12-17T20:04:20.673Z,14.50
2022-12-17T20:09:23.102Z,14.50
2022-12-17T20:14:29.327Z,14.50
2022-12-17T20:19:34.698Z,14.40
2022-12-17T20:24:37.501Z,14.40
2022-12-17T20:29:39.876Z,14.40
2022-12-17T20:34:42.320Z,14.40
2022-12-17T20:39:44.713Z,14.30
2022-12-17T20:44:53.083Z,14.40
2022-12-17T20:49:55.909Z,14.30
2022-12-17T20:54:58.234Z,14.30
2022-12-17T21:00:00.558Z,14.20
2022-12-17T21:05:04.091Z,14.10
2022-12-17T21:10:06.805Z,14.20
2022-12-17T21:15:09.431Z,14.10
2022-12-17T21:20:11.884Z,14.10
2022-12-17T21:25:14.667Z,14.10
2022-12-17T21:30:17.050Z,14.00
2022-12-17T21:35:19.409Z,14.00
2022-12-17T21:40:21.942Z,13.80
2022-12-17T21:45:25.733Z,13.70
2022-12-17T21:50:28.211Z,13.70
2022-12-17T21:55:30.410Z,13.70
2022-12-17T22:00:32.702Z,13.60
2022-12-17T22:05:39.135Z,13.40
2022-12-17T22:10:48.169Z,13.40
2022-12-17T22:15:54.502Z,13.30
2022-12-17T22:20:59.904Z,13.30
2022-12-17T22:26:02.188Z,13.20
2022-12-17T22:31:26.368Z,13.10
2022-12-17T22:39:09.383Z,13.00
2022-12-17T22:44:37.945Z,12.80
2022-12-17T22:47:35.556Z,12.70
2022-12-17T22:52:38.011Z,12.70
2022-12-17T22:57:40.778Z,12.70
2022-12-17T23:02:43.168Z,12.70
2022-12-17T23:07:45.451Z,12.60
2022-12-17T23:12:51.409Z,12.60
2022-12-17T23:17:55.847Z,12.70
2022-12-17T23:22:58.451Z,12.70
2022-12-17T23:28:00.677Z,12.70
2022-12-17T23:33:03.012Z,12.60
2022-12-17T23:38:05.261Z,12.60
2022-12-17T23:43:08.335Z,12.60
2022-12-17T23:48:11.960Z,12.60
2022-12-17T23:53:14.174Z,12.60
2022-12-17T23:58:16.490Z,12.70
